sensor_id;sensor_type;location;lat;lon;timestamp;P1;durP1;ratioP1;P2;durP2;ratioP2
33716;SDS011;20046;50.746;7.072;2022-08-01T00:00:42;2.72;;;1.60;;
33716;SDS011;20046;50.746;7.072;2022-08-01T00:03:07;3.88;;;2.00;;
33716;SDS011;20046;50.746;7.072;2022-08-01T00:05:33;3.85;;;1.77;;
33716;SDS011;20046;50.746;7.072;2022-08-01T00:07:58;2.78;;;1.67;;
33716;SDS011;20046;50.746;7.072;2022-08-01T00:10:24;4.10;;;1.75;;
33716;SDS011;20046;50.746;7.072;2022-08-01T00:12:50;3.15;;;1.52;;
33716;SDS011;20046;50.746;7.072;2022-08-01T00:15:16;2.58;;;1.73;;
33716;SDS011;20046;50.746;7.072;2022-08-01T00:17:42;4.00;;;2.05;;
33716;SDS011;20046;50.746;7.072;2022-08-01T00:20:09;3.95;;;1.42;;
33716;SDS011;20046;50.746;7.072;2022-08-01T00:22:36;3.97;;;1.77;;
33716;SDS011;20046;50.746;7.072;2022-08-01T00:25:02;4.25;;;2.05;;
33716;SDS011;20046;50.746;7.072;2022-08-01T00:27:29;3.67;;;2.13;;
33716;SDS011;20046;50.746;7.072;2022-08-01T00:29:54;2.67;;;1.50;;
33716;SDS011;20046;50.746;7.072;2022-08-01T00:32:20;3.55;;;1.98;;
33716;SDS011;20046;50.746;7.072;2022-08-01T00:34:46;7.88;;;1.80;;
33716;SDS011;20046;50.746;7.072;2022-08-01T00:37:11;3.80;;;1.60;;
33716;SDS011;20046;50.746;7.072;2022-08-01T00:39:37;3.40;;;1.83;;
33716;SDS011;20046;50.746;7.072;2022-08-01T00:42:06;1.85;;;1.25;;
33716;SDS011;20046;50.746;7.072;2022-08-01T00:44:33;2.25;;;1.38;;
33716;SDS011;20046;50.746;7.072;2022-08-01T00:46:59;1.77;;;1.30;;
33716;SDS011;20046;50.746;7.072;2022-08-01T00:49:25;3.28;;;1.75;;
33716;SDS011;20046;50.746;7.072;2022-08-01T00:51:52;3.17;;;1.50;;
33716;SDS011;20046;50.746;7.072;2022-08-01T00:54:18;4.13;;;1.50;;
33716;SDS011;20046;50.746;7.072;2022-08-01T00:56:44;2.95;;;1.52;;
33716;SDS011;20046;50.746;7.072;2022-08-01T00:59:11;3.60;;;1.70;;
33716;SDS011;20046;50.746;7.072;2022-08-01T01:01:36;4.47;;;1.83;;
33716;SDS011;20046;50.746;7.072;2022-08-01T01:04:02;6.45;;;1.60;;
33716;SDS011;20046;50.746;7.072;2022-08-01T01:17:48;3.22;;;1.70;;
33716;SDS011;20046;50.746;7.072;2022-08-01T01:20:21;7.63;;;1.83;;
33716;SDS011;20046;50.746;7.072;2022-08-01T01:30:30;4.82;;;1.55;;
33716;SDS011;20046;50.746;7.072;2022-08-01T01:32:58;2.50;;;1.52;;
33716;SDS011;20046;50.746;7.072;2022-08-01T01:35:28;4.22;;;1.80;;
33716;SDS011;20046;50.746;7.072;2022-08-01T01:38:00;3.80;;;2.05;;
33716;SDS011;20046;50.746;7.072;2022-08-01T01:40:29;8.25;;;2.13;;
33716;SDS011;20046;50.746;7.072;2022-08-01T01:42:56;3.78;;;1.95;;
33716;SDS011;20046;50.746;7.072;2022-08-01T01:45:23;4.82;;;2.50;;
33716;SDS011;20046;50.746;7.072;2022-08-01T01:47:50;4.40;;;2.25;;
33716;SDS011;20046;50.746;7.072;2022-08-01T01:50:16;3.50;;;2.25;;
33716;SDS011;20046;50.746;7.072;2022-08-01T01:52:46;3.35;;;2.35;;
33716;SDS011;20046;50.746;7.072;2022-08-01T01:55:12;4.15;;;2.13;;
33716;SDS011;20046;50.746;7.072;2022-08-01T01:57:41;4.82;;;2.50;;
33716;SDS011;20046;50.746;7.072;2022-08-01T02:00:12;3.20;;;2.13;;
33716;SDS011;20046;50.746;7.072;2022-08-01T02:02:39;3.75;;;2.22;;
33716;SDS011;20046;50.746;7.072;2022-08-01T02:05:08;5.25;;;2.42;;
33716;SDS011;20046;50.746;7.072;2022-08-01T02:07:35;4.10;;;2.20;;
33716;SDS011;20046;50.746;7.072;2022-08-01T02:10:03;4.20;;;2.03;;
33716;SDS011;20046;50.746;7.072;2022-08-01T02:12:32;4.80;;;1.80;;
33716;SDS011;20046;50.746;7.072;2022-08-01T02:15:01;2.53;;;1.85;;
33716;SDS011;20046;50.746;7.072;2022-08-01T02:17:28;3.10;;;1.70;;
33716;SDS011;20046;50.746;7.072;2022-08-01T02:19:55;3.90;;;2.13;;
33716;SDS011;20046;50.746;7.072;2022-08-01T02:22:36;3.83;;;1.80;;
33716;SDS011;20046;50.746;7.072;2022-08-01T02:30:05;4.60;;;2.30;;
33716;SDS011;20046;50.746;7.072;2022-08-01T02:32:37;5.70;;;2.25;;
33716;SDS011;20046;50.746;7.072;2022-08-01T02:35:09;4.15;;;2.38;;
33716;SDS011;20046;50.746;7.072;2022-08-01T02:37:39;7.43;;;5.80;;
33716;SDS011;20046;50.746;7.072;2022-08-01T02:40:07;5.10;;;2.17;;
33716;SDS011;20046;50.746;7.072;2022-08-01T02:42:34;3.00;;;2.00;;
33716;SDS011;20046;50.746;7.072;2022-08-01T02:45:03;3.33;;;2.50;;
33716;SDS011;20046;50.746;7.072;2022-08-01T02:47:33;7.22;;;2.70;;
33716;SDS011;20046;50.746;7.072;2022-08-01T02:50:00;4.65;;;2.70;;
33716;SDS011;20046;50.746;7.072;2022-08-01T02:52:27;4.68;;;2.22;;
33716;SDS011;20046;50.746;7.072;2022-08-01T02:54:55;5.57;;;3.00;;
33716;SDS011;20046;50.746;7.072;2022-08-01T02:57:22;4.47;;;2.50;;
33716;SDS011;20046;50.746;7.072;2022-08-01T02:59:49;3.97;;;2.55;;
33716;SDS011;20046;50.746;7.072;2022-08-01T03:02:16;4.80;;;2.63;;
33716;SDS011;20046;50.746;7.072;2022-08-01T03:04:43;7.47;;;2.53;;
33716;SDS011;20046;50.746;7.072;2022-08-01T03:07:10;5.45;;;2.50;;
33716;SDS011;20046;50.746;7.072;2022-08-01T03:09:38;11.00;;;4.95;;
33716;SDS011;20046;50.746;7.072;2022-08-01T03:12:09;4.90;;;2.40;;
33716;SDS011;20046;50.746;7.072;2022-08-01T03:14:39;5.75;;;3.53;;
33716;SDS011;20046;50.746;7.072;2022-08-01T03:17:07;4.53;;;2.17;;
33716;SDS011;20046;50.746;7.072;2022-08-01T03:19:34;3.13;;;2.40;;
33716;SDS011;20046;50.746;7.072;2022-08-01T03:22:02;5.60;;;2.50;;
33716;SDS011;20046;50.746;7.072;2022-08-01T03:24:31;6.35;;;2.55;;
33716;SDS011;20046;50.746;7.072;2022-08-01T03:26:57;5.30;;;2.20;;
33716;SDS011;20046;50.746;7.072;2022-08-01T03:29:25;6.57;;;2.42;;
33716;SDS011;20046;50.746;7.072;2022-08-01T03:31:52;5.82;;;2.30;;
33716;SDS011;20046;50.746;7.072;2022-08-01T03:34:18;5.53;;;2.30;;
33716;SDS011;20046;50.746;7.072;2022-08-01T03:37:03;7.40;;;2.63;;
33716;SDS011;20046;50.746;7.072;2022-08-01T03:39:52;4.25;;;2.35;;
33716;SDS011;20046;50.746;7.072;2022-08-01T03:42:23;9.57;;;2.70;;
33716;SDS011;20046;50.746;7.072;2022-08-01T03:44:54;7.07;;;2.50;;
33716;SDS011;20046;50.746;7.072;2022-08-01T03:47:29;5.28;;;2.63;;
33716;SDS011;20046;50.746;7.072;2022-08-01T03:49:58;5.13;;;2.53;;
33716;SDS011;20046;50.746;7.072;2022-08-01T03:52:26;6.57;;;2.60;;
33716;SDS011;20046;50.746;7.072;2022-08-01T03:54:53;5.63;;;2.80;;
33716;SDS011;20046;50.746;7.072;2022-08-01T03:57:21;5.47;;;2.53;;
33716;SDS011;20046;50.746;7.072;2022-08-01T03:59:48;3.63;;;2.50;;
33716;SDS011;20046;50.746;7.072;2022-08-01T04:02:15;8.05;;;3.42;;
33716;SDS011;20046;50.746;7.072;2022-08-01T04:04:41;11.80;;;2.85;;
33716;SDS011;20046;50.746;7.072;2022-08-01T04:10:00;6.43;;;2.85;;
33716;SDS011;20046;50.746;7.072;2022-08-01T04:12:26;4.30;;;3.17;;
33716;SDS011;20046;50.746;7.072;2022-08-01T04:14:52;10.23;;;3.25;;
33716;SDS011;20046;50.746;7.072;2022-08-01T04:17:17;6.18;;;2.92;;
33716;SDS011;20046;50.746;7.072;2022-08-01T04:19:43;3.97;;;2.85;;
33716;SDS011;20046;50.746;7.072;2022-08-01T04:22:10;7.40;;;3.28;;
33716;SDS011;20046;50.746;7.072;2022-08-01T04:24:38;7.53;;;3.63;;
33716;SDS011;20046;50.746;7.072;2022-08-01T04:27:07;9.30;;;3.40;;
33716;SDS011;20046;50.746;7.072;2022-08-01T04:29:36;5.72;;;3.60;;
33716;SDS011;20046;50.746;7.072;2022-08-01T04:32:03;7.82;;;3.15;;
33716;SDS011;20046;50.746;7.072;2022-08-01T04:34:31;6.70;;;3.28;;
33716;SDS011;20046;50.746;7.072;2022-08-01T04:36:58;7.38;;;3.30;;
33716;SDS011;20046;50.746;7.072;2022-08-01T04:39:26;10.55;;;3.67;;
33716;SDS011;20046;50.746;7.072;2022-08-01T04:41:55;9.88;;;3.85;;
33716;SDS011;20046;50.746;7.072;2022-08-01T04:44:24;7.57;;;3.83;;
33716;SDS011;20046;50.746;7.072;2022-08-01T04:46:52;6.40;;;3.97;;
33716;SDS011;20046;50.746;7.072;2022-08-01T04:49:19;6.97;;;4.00;;
33716;SDS011;20046;50.746;7.072;2022-08-01T04:51:53;7.47;;;4.55;;
33716;SDS011;20046;50.746;7.072;2022-08-01T04:54:25;9.73;;;3.85;;
33716;SDS011;20046;50.746;7.072;2022-08-01T04:56:59;7.65;;;4.22;;
33716;SDS011;20046;50.746;7.072;2022-08-01T04:59:32;6.55;;;4.20;;
33716;SDS011;20046;50.746;7.072;2022-08-01T05:02:09;8.75;;;4.65;;
33716;SDS011;20046;50.746;7.072;2022-08-01T05:04:37;7.20;;;4.15;;
33716;SDS011;20046;50.746;7.072;2022-08-01T05:07:03;8.95;;;4.63;;
33716;SDS011;20046;50.746;7.072;2022-08-01T05:09:29;9.88;;;6.43;;
33716;SDS011;20046;50.746;7.072;2022-08-01T05:11:58;11.65;;;5.78;;
33716;SDS011;20046;50.746;7.072;2022-08-01T05:14:26;11.40;;;5.28;;
33716;SDS011;20046;50.746;7.072;2022-08-01T05:16:52;10.20;;;4.85;;
33716;SDS011;20046;50.746;7.072;2022-08-01T05:19:19;8.52;;;4.85;;
33716;SDS011;20046;50.746;7.072;2022-08-01T05:21:45;8.15;;;5.10;;
33716;SDS011;20046;50.746;7.072;2022-08-01T05:24:10;8.65;;;5.32;;
33716;SDS011;20046;50.746;7.072;2022-08-01T05:26:37;8.90;;;4.85;;
33716;SDS011;20046;50.746;7.072;2022-08-01T05:29:03;8.93;;;5.63;;
33716;SDS011;20046;50.746;7.072;2022-08-01T05:31:29;14.20;;;7.03;;
33716;SDS011;20046;50.746;7.072;2022-08-01T05:33:55;12.82;;;7.05;;
33716;SDS011;20046;50.746;7.072;2022-08-01T05:36:20;12.43;;;7.47;;
33716;SDS011;20046;50.746;7.072;2022-08-01T05:38:46;17.48;;;7.32;;
33716;SDS011;20046;50.746;7.072;2022-08-01T05:41:12;13.40;;;7.13;;
33716;SDS011;20046;50.746;7.072;2022-08-01T05:43:37;12.75;;;7.38;;
33716;SDS011;20046;50.746;7.072;2022-08-01T05:46:03;13.80;;;7.50;;
33716;SDS011;20046;50.746;7.072;2022-08-01T05:48:29;12.95;;;7.82;;
33716;SDS011;20046;50.746;7.072;2022-08-01T05:50:55;12.45;;;7.78;;
33716;SDS011;20046;50.746;7.072;2022-08-01T05:53:21;11.32;;;6.85;;
33716;SDS011;20046;50.746;7.072;2022-08-01T05:55:46;14.70;;;7.65;;
33716;SDS011;20046;50.746;7.072;2022-08-01T05:58:12;14.35;;;7.03;;
33716;SDS011;20046;50.746;7.072;2022-08-01T06:00:37;13.10;;;7.25;;
33716;SDS011;20046;50.746;7.072;2022-08-01T06:03:04;13.38;;;7.03;;
33716;SDS011;20046;50.746;7.072;2022-08-01T06:05:29;16.73;;;6.70;;
33716;SDS011;20046;50.746;7.072;2022-08-01T06:07:55;14.80;;;7.97;;
33716;SDS011;20046;50.746;7.072;2022-08-01T06:10:21;13.88;;;7.55;;
33716;SDS011;20046;50.746;7.072;2022-08-01T06:12:46;17.27;;;8.05;;
33716;SDS011;20046;50.746;7.072;2022-08-01T06:15:12;17.50;;;7.93;;
33716;SDS011;20046;50.746;7.072;2022-08-01T06:17:37;16.60;;;7.95;;
33716;SDS011;20046;50.746;7.072;2022-08-01T06:20:04;10.73;;;7.13;;
33716;SDS011;20046;50.746;7.072;2022-08-01T06:22:31;16.42;;;7.82;;
33716;SDS011;20046;50.746;7.072;2022-08-01T06:24:57;13.63;;;7.88;;
33716;SDS011;20046;50.746;7.072;2022-08-01T06:27:22;15.48;;;8.13;;
33716;SDS011;20046;50.746;7.072;2022-08-01T06:29:49;14.85;;;7.28;;
33716;SDS011;20046;50.746;7.072;2022-08-01T06:32:18;16.00;;;8.02;;
33716;SDS011;20046;50.746;7.072;2022-08-01T06:34:44;15.93;;;8.40;;
33716;SDS011;20046;50.746;7.072;2022-08-01T06:37:10;22.95;;;7.65;;
33716;SDS011;20046;50.746;7.072;2022-08-01T06:39:38;15.05;;;8.15;;
33716;SDS011;20046;50.746;7.072;2022-08-01T06:42:03;19.35;;;8.45;;
33716;SDS011;20046;50.746;7.072;2022-08-01T06:44:29;11.40;;;7.07;;
33716;SDS011;20046;50.746;7.072;2022-08-01T06:46:55;13.68;;;7.57;;
33716;SDS011;20046;50.746;7.072;2022-08-01T06:49:23;19.33;;;8.45;;
33716;SDS011;20046;50.746;7.072;2022-08-01T06:51:49;15.57;;;8.02;;
33716;SDS011;20046;50.746;7.072;2022-08-01T06:54:15;19.30;;;9.35;;
33716;SDS011;20046;50.746;7.072;2022-08-01T06:56:41;13.70;;;8.02;;
33716;SDS011;20046;50.746;7.072;2022-08-01T06:59:07;13.60;;;8.05;;
33716;SDS011;20046;50.746;7.072;2022-08-01T07:01:33;14.55;;;7.72;;
33716;SDS011;20046;50.746;7.072;2022-08-01T07:03:59;16.70;;;8.15;;
33716;SDS011;20046;50.746;7.072;2022-08-01T07:06:24;13.73;;;8.65;;
33716;SDS011;20046;50.746;7.072;2022-08-01T07:08:54;17.52;;;8.00;;
33716;SDS011;20046;50.746;7.072;2022-08-01T07:11:21;15.10;;;7.72;;
33716;SDS011;20046;50.746;7.072;2022-08-01T07:13:47;16.08;;;8.50;;
33716;SDS011;20046;50.746;7.072;2022-08-01T07:16:16;17.77;;;9.10;;
33716;SDS011;20046;50.746;7.072;2022-08-01T07:18:42;16.45;;;9.20;;
33716;SDS011;20046;50.746;7.072;2022-08-01T07:21:08;13.55;;;7.78;;
33716;SDS011;20046;50.746;7.072;2022-08-01T07:23:34;16.13;;;8.85;;
33716;SDS011;20046;50.746;7.072;2022-08-01T07:26:00;13.60;;;8.70;;
33716;SDS011;20046;50.746;7.072;2022-08-01T07:28:29;15.95;;;9.07;;
33716;SDS011;20046;50.746;7.072;2022-08-01T07:30:55;16.50;;;9.07;;
33716;SDS011;20046;50.746;7.072;2022-08-01T07:33:21;14.85;;;8.73;;
33716;SDS011;20046;50.746;7.072;2022-08-01T07:35:47;16.55;;;8.70;;
33716;SDS011;20046;50.746;7.072;2022-08-01T07:38:13;11.73;;;8.48;;
33716;SDS011;20046;50.746;7.072;2022-08-01T07:40:40;14.63;;;9.48;;
33716;SDS011;20046;50.746;7.072;2022-08-01T07:43:05;14.05;;;8.38;;
33716;SDS011;20046;50.746;7.072;2022-08-01T07:45:31;18.48;;;8.82;;
33716;SDS011;20046;50.746;7.072;2022-08-01T07:48:01;17.00;;;7.97;;
33716;SDS011;20046;50.746;7.072;2022-08-01T07:52:56;13.48;;;8.52;;
33716;SDS011;20046;50.746;7.072;2022-08-01T07:55:22;15.93;;;8.57;;
33716;SDS011;20046;50.746;7.072;2022-08-01T07:57:47;13.18;;;7.50;;
33716;SDS011;20046;50.746;7.072;2022-08-01T08:00:13;10.18;;;7.65;;
33716;SDS011;20046;50.746;7.072;2022-08-01T08:02:39;9.32;;;7.25;;
33716;SDS011;20046;50.746;7.072;2022-08-01T08:05:05;13.65;;;7.10;;
33716;SDS011;20046;50.746;7.072;2022-08-01T08:07:33;10.65;;;7.22;;
33716;SDS011;20046;50.746;7.072;2022-08-01T08:09:59;17.45;;;7.72;;
33716;SDS011;20046;50.746;7.072;2022-08-01T08:12:25;10.60;;;6.57;;
33716;SDS011;20046;50.746;7.072;2022-08-01T08:14:50;11.20;;;6.78;;
33716;SDS011;20046;50.746;7.072;2022-08-01T08:17:16;11.10;;;6.75;;
33716;SDS011;20046;50.746;7.072;2022-08-01T08:19:41;9.38;;;6.53;;
33716;SDS011;20046;50.746;7.072;2022-08-01T08:22:07;10.93;;;6.90;;
33716;SDS011;20046;50.746;7.072;2022-08-01T08:24:33;10.38;;;7.05;;
33716;SDS011;20046;50.746;7.072;2022-08-01T08:27:00;12.50;;;7.05;;
33716;SDS011;20046;50.746;7.072;2022-08-01T08:29:27;10.60;;;7.10;;
33716;SDS011;20046;50.746;7.072;2022-08-01T08:31:55;11.35;;;6.78;;
33716;SDS011;20046;50.746;7.072;2022-08-01T08:34:21;10.88;;;7.10;;
33716;SDS011;20046;50.746;7.072;2022-08-01T08:36:47;8.05;;;5.65;;
33716;SDS011;20046;50.746;7.072;2022-08-01T08:39:16;9.27;;;6.25;;
33716;SDS011;20046;50.746;7.072;2022-08-01T08:41:42;11.52;;;5.90;;
33716;SDS011;20046;50.746;7.072;2022-08-01T08:44:08;17.50;;;12.57;;
33716;SDS011;20046;50.746;7.072;2022-08-01T08:46:40;10.50;;;5.93;;
33716;SDS011;20046;50.746;7.072;2022-08-01T08:49:08;9.30;;;5.88;;
33716;SDS011;20046;50.746;7.072;2022-08-01T08:51:37;10.32;;;5.75;;
33716;SDS011;20046;50.746;7.072;2022-08-01T08:54:06;9.13;;;5.35;;
33716;SDS011;20046;50.746;7.072;2022-08-01T08:56:32;11.77;;;5.07;;
33716;SDS011;20046;50.746;7.072;2022-08-01T08:59:00;9.50;;;4.30;;
33716;SDS011;20046;50.746;7.072;2022-08-01T09:01:27;5.43;;;3.85;;
33716;SDS011;20046;50.746;7.072;2022-08-01T09:03:53;8.93;;;3.95;;
33716;SDS011;20046;50.746;7.072;2022-08-01T09:06:19;4.97;;;4.00;;
33716;SDS011;20046;50.746;7.072;2022-08-01T09:08:45;7.50;;;4.88;;
33716;SDS011;20046;50.746;7.072;2022-08-01T09:11:11;4.60;;;3.83;;
33716;SDS011;20046;50.746;7.072;2022-08-01T09:13:37;5.97;;;3.67;;
33716;SDS011;20046;50.746;7.072;2022-08-01T09:16:03;7.25;;;4.30;;
33716;SDS011;20046;50.746;7.072;2022-08-01T09:18:42;5.72;;;3.88;;
33716;SDS011;20046;50.746;7.072;2022-08-01T09:26:15;9.35;;;4.03;;
33716;SDS011;20046;50.746;7.072;2022-08-01T09:28:42;7.40;;;4.50;;
33716;SDS011;20046;50.746;7.072;2022-08-01T09:31:16;6.70;;;4.25;;
33716;SDS011;20046;50.746;7.072;2022-08-01T09:33:46;6.63;;;3.67;;
33716;SDS011;20046;50.746;7.072;2022-08-01T09:36:20;6.28;;;3.85;;
33716;SDS011;20046;50.746;7.072;2022-08-01T09:38:48;8.20;;;4.00;;
33716;SDS011;20046;50.746;7.072;2022-08-01T09:41:15;4.95;;;3.20;;
33716;SDS011;20046;50.746;7.072;2022-08-01T09:43:47;6.03;;;3.42;;
33716;SDS011;20046;50.746;7.072;2022-08-01T09:46:14;6.30;;;3.70;;
33716;SDS011;20046;50.746;7.072;2022-08-01T09:51:55;5.60;;;3.45;;
33716;SDS011;20046;50.746;7.072;2022-08-01T09:54:16;6.15;;;3.17;;
33716;SDS011;20046;50.746;7.072;2022-08-01T09:57:06;4.22;;;2.90;;
33716;SDS011;20046;50.746;7.072;2022-08-01T09:59:41;4.85;;;3.00;;
33716;SDS011;20046;50.746;7.072;2022-08-01T10:02:12;3.85;;;2.70;;
33716;SDS011;20046;50.746;7.072;2022-08-01T10:04:49;5.38;;;3.03;;
33716;SDS011;20046;50.746;7.072;2022-08-01T10:07:16;6.45;;;2.75;;
33716;SDS011;20046;50.746;7.072;2022-08-01T10:09:43;8.23;;;3.20;;
33716;SDS011;20046;50.746;7.072;2022-08-01T10:12:11;5.20;;;3.25;;
33716;SDS011;20046;50.746;7.072;2022-08-01T10:14:38;5.38;;;2.97;;
33716;SDS011;20046;50.746;7.072;2022-08-01T10:17:06;5.60;;;3.30;;
33716;SDS011;20046;50.746;7.072;2022-08-01T10:19:34;4.95;;;2.47;;
33716;SDS011;20046;50.746;7.072;2022-08-01T10:22:02;8.02;;;2.83;;
33716;SDS011;20046;50.746;7.072;2022-08-01T10:24:32;5.20;;;2.50;;
33716;SDS011;20046;50.746;7.072;2022-08-01T10:27:03;7.80;;;3.00;;
33716;SDS011;20046;50.746;7.072;2022-08-01T10:29:32;3.90;;;3.10;;
33716;SDS011;20046;50.746;7.072;2022-08-01T10:32:05;7.43;;;3.50;;
33716;SDS011;20046;50.746;7.072;2022-08-01T10:34:34;8.65;;;4.00;;
33716;SDS011;20046;50.746;7.072;2022-08-01T10:37:02;9.25;;;3.78;;
33716;SDS011;20046;50.746;7.072;2022-08-01T10:39:29;6.93;;;4.10;;
33716;SDS011;20046;50.746;7.072;2022-08-01T10:41:56;4.95;;;3.90;;
33716;SDS011;20046;50.746;7.072;2022-08-01T10:44:23;5.40;;;3.38;;
33716;SDS011;20046;50.746;7.072;2022-08-01T10:46:50;5.55;;;4.00;;
33716;SDS011;20046;50.746;7.072;2022-08-01T10:49:20;8.35;;;3.55;;
33716;SDS011;20046;50.746;7.072;2022-08-01T10:51:48;5.95;;;3.75;;
33716;SDS011;20046;50.746;7.072;2022-08-01T10:54:14;5.40;;;3.65;;
33716;SDS011;20046;50.746;7.072;2022-08-01T10:56:44;5.85;;;3.38;;
33716;SDS011;20046;50.746;7.072;2022-08-01T10:59:14;5.93;;;2.95;;
33716;SDS011;20046;50.746;7.072;2022-08-01T11:01:54;4.35;;;2.70;;
33716;SDS011;20046;50.746;7.072;2022-08-01T11:04:24;8.73;;;3.05;;
33716;SDS011;20046;50.746;7.072;2022-08-01T11:07:13;4.20;;;2.47;;
33716;SDS011;20046;50.746;7.072;2022-08-01T11:09:46;3.05;;;2.60;;
33716;SDS011;20046;50.746;7.072;2022-08-01T11:12:23;5.28;;;2.65;;
33716;SDS011;20046;50.746;7.072;2022-08-01T11:20:05;4.35;;;3.17;;
33716;SDS011;20046;50.746;7.072;2022-08-01T11:28:21;10.90;;;3.90;;
33716;SDS011;20046;50.746;7.072;2022-08-01T11:30:50;48.05;;;6.43;;
33716;SDS011;20046;50.746;7.072;2022-08-01T11:38:39;18.38;;;4.78;;
33716;SDS011;20046;50.746;7.072;2022-08-01T11:49:23;6.00;;;3.50;;
33716;SDS011;20046;50.746;7.072;2022-08-01T11:57:37;10.80;;;5.63;;
33716;SDS011;20046;50.746;7.072;2022-08-01T12:00:04;8.25;;;4.10;;
33716;SDS011;20046;50.746;7.072;2022-08-01T12:02:35;4.28;;;3.88;;
33716;SDS011;20046;50.746;7.072;2022-08-01T12:05:11;9.05;;;4.78;;
33716;SDS011;20046;50.746;7.072;2022-08-01T12:07:40;5.63;;;3.80;;
33716;SDS011;20046;50.746;7.072;2022-08-01T12:10:11;5.68;;;3.47;;
33716;SDS011;20046;50.746;7.072;2022-08-01T12:12:48;4.63;;;3.40;;
33716;SDS011;20046;50.746;7.072;2022-08-01T12:15:15;10.93;;;3.90;;
33716;SDS011;20046;50.746;7.072;2022-08-01T12:17:49;7.35;;;4.30;;
33716;SDS011;20046;50.746;7.072;2022-08-01T12:20:19;8.55;;;4.20;;
33716;SDS011;20046;50.746;7.072;2022-08-01T12:22:45;6.05;;;4.00;;
33716;SDS011;20046;50.746;7.072;2022-08-01T12:25:15;6.68;;;3.53;;
33716;SDS011;20046;50.746;7.072;2022-08-01T12:27:42;10.18;;;4.78;;
33716;SDS011;20046;50.746;7.072;2022-08-01T12:30:13;8.65;;;3.80;;
33716;SDS011;20046;50.746;7.072;2022-08-01T12:32:50;7.50;;;4.25;;
33716;SDS011;20046;50.746;7.072;2022-08-01T12:35:21;5.80;;;3.92;;
33716;SDS011;20046;50.746;7.072;2022-08-01T12:37:49;7.70;;;4.70;;
33716;SDS011;20046;50.746;7.072;2022-08-01T12:40:20;8.90;;;4.05;;
33716;SDS011;20046;50.746;7.072;2022-08-01T12:42:55;10.57;;;4.18;;
33716;SDS011;20046;50.746;7.072;2022-08-01T12:45:24;9.80;;;3.60;;
33716;SDS011;20046;50.746;7.072;2022-08-01T12:47:54;6.88;;;3.55;;
33716;SDS011;20046;50.746;7.072;2022-08-01T12:50:22;7.32;;;3.10;;
33716;SDS011;20046;50.746;7.072;2022-08-01T12:52:50;4.60;;;3.33;;
33716;SDS011;20046;50.746;7.072;2022-08-01T12:55:17;3.97;;;3.00;;
33716;SDS011;20046;50.746;7.072;2022-08-01T12:58:02;2.92;;;2.72;;
33716;SDS011;20046;50.746;7.072;2022-08-01T13:00:30;7.00;;;2.88;;
33716;SDS011;20046;50.746;7.072;2022-08-01T13:03:05;3.38;;;2.72;;
33716;SDS011;20046;50.746;7.072;2022-08-01T13:05:42;5.05;;;2.83;;
33716;SDS011;20046;50.746;7.072;2022-08-01T13:08:19;3.58;;;2.33;;
33716;SDS011;20046;50.746;7.072;2022-08-01T13:10:49;6.40;;;2.90;;
33716;SDS011;20046;50.746;7.072;2022-08-01T13:13:24;3.15;;;2.50;;
33716;SDS011;20046;50.746;7.072;2022-08-01T13:16:05;4.20;;;3.30;;
33716;SDS011;20046;50.746;7.072;2022-08-01T13:18:32;6.55;;;4.28;;
33716;SDS011;20046;50.746;7.072;2022-08-01T13:26:49;6.15;;;4.22;;
33716;SDS011;20046;50.746;7.072;2022-08-01T13:29:30;3.53;;;2.38;;
33716;SDS011;20046;50.746;7.072;2022-08-01T13:32:12;6.57;;;2.83;;
33716;SDS011;20046;50.746;7.072;2022-08-01T13:34:42;8.82;;;3.05;;
33716;SDS011;20046;50.746;7.072;2022-08-01T13:37:07;3.35;;;2.55;;
33716;SDS011;20046;50.746;7.072;2022-08-01T13:39:33;7.75;;;3.25;;
33716;SDS011;20046;50.746;7.072;2022-08-01T13:42:05;7.18;;;2.95;;
33716;SDS011;20046;50.746;7.072;2022-08-01T13:44:31;8.98;;;3.38;;
33716;SDS011;20046;50.746;7.072;2022-08-01T13:46:57;11.85;;;3.42;;
33716;SDS011;20046;50.746;7.072;2022-08-01T13:49:23;3.42;;;3.13;;
33716;SDS011;20046;50.746;7.072;2022-08-01T13:51:48;5.80;;;3.20;;
33716;SDS011;20046;50.746;7.072;2022-08-01T13:54:15;5.90;;;3.17;;
33716;SDS011;20046;50.746;7.072;2022-08-01T13:56:41;4.50;;;3.25;;
33716;SDS011;20046;50.746;7.072;2022-08-01T13:59:07;10.65;;;3.88;;
33716;SDS011;20046;50.746;7.072;2022-08-01T14:01:33;3.60;;;3.30;;
33716;SDS011;20046;50.746;7.072;2022-08-01T14:03:59;4.50;;;3.53;;
33716;SDS011;20046;50.746;7.072;2022-08-01T14:06:25;8.23;;;3.70;;
33716;SDS011;20046;50.746;7.072;2022-08-01T14:08:51;6.28;;;3.55;;
33716;SDS011;20046;50.746;7.072;2022-08-01T14:11:17;4.95;;;3.40;;
33716;SDS011;20046;50.746;7.072;2022-08-01T14:13:43;5.00;;;3.42;;
33716;SDS011;20046;50.746;7.072;2022-08-01T14:16:08;7.78;;;3.20;;
33716;SDS011;20046;50.746;7.072;2022-08-01T14:18:34;6.65;;;3.33;;
33716;SDS011;20046;50.746;7.072;2022-08-01T14:21:00;4.70;;;2.90;;
33716;SDS011;20046;50.746;7.072;2022-08-01T14:23:26;9.30;;;2.90;;
33716;SDS011;20046;50.746;7.072;2022-08-01T14:25:52;3.60;;;2.55;;
33716;SDS011;20046;50.746;7.072;2022-08-01T14:28:18;2.80;;;2.50;;
33716;SDS011;20046;50.746;7.072;2022-08-01T14:30:44;4.53;;;3.33;;
33716;SDS011;20046;50.746;7.072;2022-08-01T14:33:10;4.18;;;3.00;;
33716;SDS011;20046;50.746;7.072;2022-08-01T14:35:36;6.40;;;2.80;;
33716;SDS011;20046;50.746;7.072;2022-08-01T14:38:02;5.25;;;2.47;;
33716;SDS011;20046;50.746;7.072;2022-08-01T14:40:28;4.10;;;2.20;;
33716;SDS011;20046;50.746;7.072;2022-08-01T14:42:54;6.75;;;2.55;;
33716;SDS011;20046;50.746;7.072;2022-08-01T14:45:20;4.82;;;2.38;;
33716;SDS011;20046;50.746;7.072;2022-08-01T14:47:45;7.60;;;2.40;;
33716;SDS011;20046;50.746;7.072;2022-08-01T14:50:12;5.32;;;2.20;;
33716;SDS011;20046;50.746;7.072;2022-08-01T14:52:39;4.72;;;2.42;;
33716;SDS011;20046;50.746;7.072;2022-08-01T14:55:06;7.35;;;2.83;;
33716;SDS011;20046;50.746;7.072;2022-08-01T14:57:33;5.68;;;2.58;;
33716;SDS011;20046;50.746;7.072;2022-08-01T14:59:59;5.75;;;2.80;;
33716;SDS011;20046;50.746;7.072;2022-08-01T15:02:25;6.22;;;2.20;;
33716;SDS011;20046;50.746;7.072;2022-08-01T15:04:50;3.40;;;2.45;;
33716;SDS011;20046;50.746;7.072;2022-08-01T15:07:16;3.58;;;2.40;;
33716;SDS011;20046;50.746;7.072;2022-08-01T15:09:42;3.65;;;2.70;;
33716;SDS011;20046;50.746;7.072;2022-08-01T15:12:09;6.03;;;2.30;;
33716;SDS011;20046;50.746;7.072;2022-08-01T15:14:35;6.50;;;2.47;;
33716;SDS011;20046;50.746;7.072;2022-08-01T15:17:13;12.27;;;2.58;;
33716;SDS011;20046;50.746;7.072;2022-08-01T15:19:39;6.28;;;2.60;;
33716;SDS011;20046;50.746;7.072;2022-08-01T15:22:04;4.07;;;2.63;;
33716;SDS011;20046;50.746;7.072;2022-08-01T15:24:30;3.10;;;2.25;;
33716;SDS011;20046;50.746;7.072;2022-08-01T15:26:56;5.47;;;2.67;;
33716;SDS011;20046;50.746;7.072;2022-08-01T15:29:22;3.03;;;2.20;;
33716;SDS011;20046;50.746;7.072;2022-08-01T15:31:47;3.15;;;2.20;;
33716;SDS011;20046;50.746;7.072;2022-08-01T15:34:13;6.05;;;2.42;;
33716;SDS011;20046;50.746;7.072;2022-08-01T15:36:39;4.95;;;2.05;;
33716;SDS011;20046;50.746;7.072;2022-08-01T15:39:04;4.82;;;2.28;;
33716;SDS011;20046;50.746;7.072;2022-08-01T15:41:30;5.45;;;2.05;;
33716;SDS011;20046;50.746;7.072;2022-08-01T15:43:55;5.65;;;2.08;;
33716;SDS011;20046;50.746;7.072;2022-08-01T15:46:21;7.43;;;2.13;;
33716;SDS011;20046;50.746;7.072;2022-08-01T15:48:48;5.10;;;2.10;;
33716;SDS011;20046;50.746;7.072;2022-08-01T15:51:14;3.88;;;2.00;;
33716;SDS011;20046;50.746;7.072;2022-08-01T15:53:39;3.13;;;2.33;;
33716;SDS011;20046;50.746;7.072;2022-08-01T15:56:05;4.72;;;1.85;;
33716;SDS011;20046;50.746;7.072;2022-08-01T15:58:31;2.95;;;1.90;;
33716;SDS011;20046;50.746;7.072;2022-08-01T16:00:57;3.60;;;1.95;;